createdAt,value
2022-09-06T00:02:55.660Z,100.00
2022-09-06T00:08:02.420Z,100.00
2022-09-06T00:13:14.695Z,100.00
2022-09-06T00:18:19.536Z,100.00
2022-09-06T00:23:24.360Z,100.00
2022-09-06T00:28:31.805Z,100.00
2022-09-06T00:33:37.090Z,100.00
2022-09-06T00:38:44.581Z,100.00
2022-09-06T00:43:52.081Z,100.00
2022-09-06T00:49:01.659Z,100.00
2022-09-06T00:54:08.455Z,100.00
2022-09-06T00:59:16.557Z,100.00
2022-09-06T01:04:21.667Z,100.00
2022-09-06T01:09:39.758Z,100.00
2022-09-06T01:15:03.460Z,100.00
2022-09-06T01:20:41.919Z,100.00
2022-09-06T01:26:03.487Z,100.00
2022-09-06T01:31:25.044Z,100.00
2022-09-06T01:36:36.025Z,100.00
2022-09-06T01:41:41.002Z,100.00
2022-09-06T01:46:58.324Z,100.00
2022-09-06T01:52:14.762Z,100.00
2022-09-06T01:57:37.765Z,100.00
2022-09-06T02:02:55.534Z,100.00
2022-09-06T02:08:05.046Z,100.00
2022-09-06T02:13:13.243Z,100.00
2022-09-06T02:18:25.236Z,100.00
2022-09-06T02:23:34.052Z,100.00
2022-09-06T02:28:41.585Z,100.00
2022-09-06T02:33:50.408Z,100.00
2022-09-06T02:38:57.435Z,100.00
2022-09-06T02:44:09.403Z,100.00
2022-09-06T02:49:19.101Z,100.00
2022-09-06T02:54:23.881Z,100.00
2022-09-06T02:59:28.758Z,100.00
2022-09-06T03:04:36.296Z,100.00
2022-09-06T03:09:41.637Z,100.00
2022-09-06T03:14:46.499Z,100.00
2022-09-06T03:19:53.912Z,100.00
2022-09-06T03:25:03.172Z,100.00
2022-09-06T03:30:11.336Z,100.00
2022-09-06T03:35:19.031Z,100.00
2022-09-06T03:40:24.220Z,100.00
2022-09-06T03:45:29.104Z,100.00
2022-09-06T03:50:36.592Z,100.00
2022-09-06T03:55:42.538Z,100.00
2022-09-06T04:00:47.706Z,100.00
2022-09-06T04:05:55.564Z,100.00
2022-09-06T04:11:01.258Z,100.00
2022-09-06T04:16:06.868Z,100.00
2022-09-06T04:21:14.490Z,100.00
2022-09-06T04:26:22.181Z,100.00
2022-09-06T04:31:27.332Z,100.00
2022-09-06T04:36:34.788Z,100.00
2022-09-06T04:41:39.946Z,100.00
2022-09-06T04:46:45.517Z,100.00
2022-09-06T04:51:53.002Z,100.00
2022-09-06T04:56:57.862Z,100.00
2022-09-06T05:02:03.319Z,100.00
2022-09-06T05:07:22.878Z,100.00
2022-09-06T05:12:27.810Z,100.00
2022-09-06T05:17:33.613Z,100.00
2022-09-06T05:22:48.197Z,100.00
2022-09-06T05:27:55.119Z,100.00
2022-09-06T05:33:01.030Z,100.00
2022-09-06T05:38:14.977Z,100.00
2022-09-06T05:43:20.483Z,100.00
2022-09-06T05:48:27.794Z,100.00
2022-09-06T05:53:40.015Z,99.54
2022-09-06T05:59:13.201Z,97.01
2022-09-06T06:04:34.286Z,98.25
2022-09-06T06:09:45.281Z,100.00
2022-09-06T06:14:54.421Z,100.00
2022-09-06T06:20:00.257Z,100.00
2022-09-06T06:25:09.307Z,96.67
2022-09-06T06:30:18.554Z,95.91
2022-09-06T06:35:25.998Z,100.00
2022-09-06T06:40:39.219Z,100.00
2022-09-06T06:45:44.865Z,100.00
2022-09-06T06:50:52.742Z,100.00
2022-09-06T06:56:00.463Z,100.00
2022-09-06T07:01:10.442Z,100.00
2022-09-06T07:06:19.425Z,99.01
2022-09-06T07:11:36.065Z,99.24
2022-09-06T07:16:41.358Z,98.18
2022-09-06T07:21:46.522Z,96.70
2022-09-06T07:32:25.947Z,96.39
2022-09-06T07:37:36.847Z,96.03
2022-09-06T07:42:51.823Z,96.04
2022-09-06T07:47:59.333Z,95.80
2022-09-06T07:53:11.299Z,96.67
2022-09-06T07:58:27.055Z,97.06
2022-09-06T08:03:34.307Z,96.12
2022-09-06T08:08:58.766Z,97.21
2022-09-06T08:14:10.514Z,96.75
2022-09-06T08:19:18.831Z,96.59
2022-09-06T08:24:28.096Z,96.61
2022-09-06T08:29:36.773Z,96.69
2022-09-06T08:34:45.084Z,96.38
2022-09-06T08:39:52.438Z,96.09
2022-09-06T08:45:04.017Z,95.46
2022-09-06T08:50:12.439Z,94.17
2022-09-06T08:55:35.485Z,94.55
2022-09-06T09:00:53.521Z,93.49
2022-09-06T09:06:00.304Z,91.46
2022-09-06T09:11:10.856Z,92.15
2022-09-06T09:16:23.353Z,92.26
2022-09-06T09:21:31.955Z,91.37
2022-09-06T09:26:44.504Z,89.71
2022-09-06T09:31:57.394Z,90.19
2022-09-06T09:42:47.742Z,90.13
2022-09-06T09:47:55.478Z,89.77
2022-09-06T09:53:11.102Z,89.58
2022-09-06T09:58:33.950Z,90.70
2022-09-06T10:09:23.760Z,90.48
2022-09-06T10:14:34.205Z,91.18
2022-09-06T10:19:47.793Z,90.73
2022-09-06T10:25:26.001Z,89.08
2022-09-06T10:30:34.896Z,89.02
2022-09-06T10:35:43.563Z,89.43
2022-09-06T10:41:03.557Z,88.96
2022-09-06T10:46:14.765Z,88.00
2022-09-06T10:51:40.759Z,87.56
2022-09-06T10:56:53.764Z,87.57
2022-09-06T11:02:13.867Z,86.58
2022-09-06T11:07:28.796Z,87.27
2022-09-06T11:12:41.097Z,87.69
2022-09-06T11:17:52.676Z,87.37
2022-09-06T11:23:26.714Z,87.17
2022-09-06T11:28:38.816Z,85.81
2022-09-06T11:33:44.393Z,84.20
2022-09-06T11:39:11.729Z,84.37
2022-09-06T11:44:52.388Z,82.82
2022-09-06T11:49:57.546Z,80.95
2022-09-06T11:55:07.015Z,80.46
2022-09-06T12:00:24.280Z,80.62
2022-09-06T12:05:32.446Z,80.21
2022-09-06T12:11:01.284Z,80.04
2022-09-06T12:16:06.664Z,78.45
2022-09-06T12:21:15.065Z,78.14
2022-09-06T12:26:55.757Z,77.97
2022-09-06T12:32:04.879Z,78.00
2022-09-06T12:37:17.559Z,77.03
2022-09-06T12:49:02.206Z,75.90
2022-09-06T12:54:55.794Z,72.45
2022-09-06T13:00:11.873Z,75.16
2022-09-06T13:05:54.118Z,75.35
2022-09-06T13:11:27.029Z,75.67
2022-09-06T13:23:06.473Z,77.45
2022-09-06T13:28:51.290Z,78.72
2022-09-06T13:34:05.990Z,78.78
2022-09-06T13:39:12.560Z,79.03
2022-09-06T13:44:22.874Z,79.44
2022-09-06T13:49:31.777Z,80.51
2022-09-06T13:54:37.306Z,80.74
2022-09-06T13:59:44.076Z,80.26
2022-09-06T14:04:51.563Z,90.04
2022-09-06T14:09:57.059Z,100.00
2022-09-06T14:15:02.142Z,100.00
2022-09-06T14:20:12.500Z,100.00
2022-09-06T14:25:17.726Z,100.00
2022-09-06T14:30:22.763Z,100.00
2022-09-06T14:35:30.580Z,100.00
2022-09-06T14:40:38.187Z,100.00
2022-09-06T14:45:43.247Z,100.00
2022-09-06T14:50:51.090Z,100.00
2022-09-06T14:55:56.243Z,100.00
2022-09-06T15:01:13.365Z,100.00
2022-09-06T15:06:22.817Z,100.00
2022-09-06T15:11:34.772Z,100.00
2022-09-06T15:16:40.005Z,100.00
2022-09-06T15:21:47.823Z,100.00
2022-09-06T15:26:53.064Z,100.00
2022-09-06T15:31:58.442Z,100.00
2022-09-06T15:37:07.536Z,100.00
2022-09-06T15:42:12.636Z,100.00
2022-09-06T15:47:17.780Z,100.00
2022-09-06T15:52:25.496Z,100.00
2022-09-06T15:57:31.180Z,100.00
2022-09-06T16:02:36.260Z,100.00
2022-09-06T16:07:44.830Z,100.00
2022-09-06T16:12:50.672Z,100.00
2022-09-06T16:17:58.971Z,100.00
2022-09-06T16:23:09.446Z,100.00
2022-09-06T16:28:14.665Z,100.00
2022-09-06T16:33:19.551Z,100.00
2022-09-06T16:38:27.355Z,100.00
2022-09-06T16:43:36.203Z,100.00
2022-09-06T16:48:43.297Z,100.00
2022-09-06T16:53:52.151Z,100.00
2022-09-06T16:59:00.268Z,100.00
2022-09-06T17:04:06.905Z,100.00
2022-09-06T17:09:15.203Z,100.00
2022-09-06T17:14:20.567Z,100.00
2022-09-06T17:19:25.700Z,100.00
2022-09-06T17:24:33.722Z,100.00
2022-09-06T17:29:40.521Z,100.00
2022-09-06T17:34:45.470Z,100.00
2022-09-06T17:39:53.258Z,100.00
2022-09-06T17:44:58.466Z,100.00
2022-09-06T17:50:03.538Z,100.00
2022-09-06T17:55:12.041Z,100.00
2022-09-06T18:00:18.499Z,100.00
2022-09-06T18:05:24.990Z,100.00
2022-09-06T18:10:35.879Z,100.00
2022-09-06T18:15:43.761Z,100.00
2022-09-06T18:20:50.311Z,100.00
2022-09-06T18:26:08.181Z,100.00
2022-09-06T18:31:16.017Z,100.00
2022-09-06T18:36:22.476Z,100.00
2022-09-06T18:41:42.580Z,100.00
2022-09-06T18:46:47.669Z,100.00
2022-09-06T18:51:52.932Z,100.00
2022-09-06T18:57:01.216Z,100.00
2022-09-06T19:02:06.512Z,100.00
2022-09-06T19:07:11.604Z,100.00
2022-09-06T19:12:19.324Z,100.00
2022-09-06T19:17:24.478Z,100.00
2022-09-06T19:22:29.683Z,100.00
2022-09-06T19:27:37.514Z,100.00
2022-09-06T19:32:42.698Z,100.00
2022-09-06T19:37:50.102Z,100.00
2022-09-06T19:42:58.577Z,100.00
2022-09-06T19:48:03.638Z,100.00
2022-09-06T19:53:08.799Z,100.00
2022-09-06T19:58:16.514Z,100.00
2022-09-06T20:03:21.735Z,100.00
2022-09-06T20:08:27.116Z,100.00
2022-09-06T20:13:37.804Z,100.00
2022-09-06T20:18:43.543Z,100.00
2022-09-06T20:23:52.367Z,100.00
2022-09-06T20:29:01.794Z,100.00
2022-09-06T20:34:08.166Z,100.00
2022-09-06T20:39:14.880Z,100.00
2022-09-06T20:44:22.644Z,100.00
2022-09-06T20:49:27.606Z,100.00
2022-09-06T20:54:33.094Z,100.00
2022-09-06T20:59:40.567Z,100.00
2022-09-06T21:04:45.539Z,100.00
2022-09-06T21:09:50.456Z,100.00
2022-09-06T21:14:58.139Z,100.00
2022-09-06T21:20:03.303Z,100.00
2022-09-06T21:25:09.210Z,100.00
2022-09-06T21:30:17.633Z,100.00
2022-09-06T21:35:22.518Z,100.00
2022-09-06T21:40:27.865Z,100.00
2022-09-06T21:45:40.313Z,100.00
2022-09-06T21:50:48.128Z,100.00
2022-09-06T21:55:53.225Z,100.00
2022-09-06T22:01:02.117Z,100.00
2022-09-06T22:06:12.007Z,100.00
2022-09-06T22:11:18.848Z,100.00
2022-09-06T22:16:27.522Z,100.00
2022-09-06T22:21:32.614Z,100.00
2022-09-06T22:26:38.855Z,100.00
2022-09-06T22:31:46.443Z,100.00
2022-09-06T22:36:52.728Z,100.00
2022-09-06T22:42:00.874Z,100.00
2022-09-06T22:47:08.666Z,100.00
2022-09-06T22:52:13.606Z,100.00
2022-09-06T22:57:18.775Z,100.00
2022-09-06T23:02:26.224Z,100.00
2022-09-06T23:07:31.954Z,100.00
2022-09-06T23:12:36.908Z,100.00
2022-09-06T23:17:44.568Z,100.00
2022-09-06T23:22:50.640Z,100.00
2022-09-06T23:27:56.059Z,100.00
2022-09-06T23:33:03.628Z,100.00
2022-09-06T23:38:09.533Z,100.00
2022-09-06T23:43:14.552Z,100.00
2022-09-06T23:48:22.146Z,100.00
2022-09-06T23:53:27.145Z,100.00
2022-09-06T23:58:32.411Z,100.00
